sensor_id;sensor_type;location;lat;lon;timestamp;P1;durP1;ratioP1;P2;durP2;ratioP2
6444;SDS011;64733;51.424;5.484;2022-12-10T04:49:10;7.88;;;5.63;;
6444;SDS011;64733;51.424;5.484;2022-12-10T04:51:36;7.22;;;4.68;;
6444;SDS011;64733;51.424;5.484;2022-12-10T04:54:04;7.15;;;4.45;;
6444;SDS011;64733;51.424;5.484;2022-12-10T04:56:32;8.50;;;5.00;;
6444;SDS011;64733;51.424;5.484;2022-12-10T04:58:59;7.50;;;4.68;;
6444;SDS011;64733;51.424;5.484;2022-12-10T05:01:26;8.32;;;5.28;;
6444;SDS011;64733;51.424;5.484;2022-12-10T05:03:57;9.32;;;5.28;;
6444;SDS011;64733;51.424;5.484;2022-12-10T05:06:26;8.88;;;5.70;;
6444;SDS011;64733;51.424;5.484;2022-12-10T05:08:53;8.27;;;4.85;;
6444;SDS011;64733;51.424;5.484;2022-12-10T05:11:20;6.68;;;4.95;;
6444;SDS011;64733;51.424;5.484;2022-12-10T05:13:48;8.27;;;4.95;;
6444;SDS011;64733;51.424;5.484;2022-12-10T05:16:16;7.30;;;4.63;;
6444;SDS011;64733;51.424;5.484;2022-12-10T05:18:43;7.65;;;5.35;;
6444;SDS011;64733;51.424;5.484;2022-12-10T05:21:11;8.35;;;4.93;;
6444;SDS011;64733;51.424;5.484;2022-12-10T05:23:41;7.38;;;4.65;;
6444;SDS011;64733;51.424;5.484;2022-12-10T05:26:09;7.18;;;4.68;;
6444;SDS011;64733;51.424;5.484;2022-12-10T05:28:39;7.93;;;4.82;;
6444;SDS011;64733;51.424;5.484;2022-12-10T05:31:11;9.07;;;5.63;;
6444;SDS011;64733;51.424;5.484;2022-12-10T05:33:38;8.27;;;4.90;;
6444;SDS011;64733;51.424;5.484;2022-12-10T05:36:05;9.13;;;5.18;;
6444;SDS011;64733;51.424;5.484;2022-12-10T05:38:32;7.78;;;4.93;;
6444;SDS011;64733;51.424;5.484;2022-12-10T05:41:01;8.13;;;4.97;;
6444;SDS011;64733;51.424;5.484;2022-12-10T05:43:29;9.73;;;6.38;;
6444;SDS011;64733;51.424;5.484;2022-12-10T05:45:58;8.88;;;5.05;;
6444;SDS011;64733;51.424;5.484;2022-12-10T05:48:26;8.75;;;4.85;;
6444;SDS011;64733;51.424;5.484;2022-12-10T05:50:53;7.97;;;5.30;;
6444;SDS011;64733;51.424;5.484;2022-12-10T05:53:19;7.47;;;5.18;;
6444;SDS011;64733;51.424;5.484;2022-12-10T05:55:46;9.82;;;4.57;;
6444;SDS011;64733;51.424;5.484;2022-12-10T05:58:14;8.75;;;5.07;;
6444;SDS011;64733;51.424;5.484;2022-12-10T06:00:41;8.55;;;5.10;;
6444;SDS011;64733;51.424;5.484;2022-12-10T06:03:08;7.10;;;5.20;;
6444;SDS011;64733;51.424;5.484;2022-12-10T06:05:35;8.45;;;5.30;;
6444;SDS011;64733;51.424;5.484;2022-12-10T06:08:03;9.20;;;5.75;;
6444;SDS011;64733;51.424;5.484;2022-12-10T06:10:30;10.70;;;5.53;;
6444;SDS011;64733;51.424;5.484;2022-12-10T06:12:56;14.57;;;6.45;;
6444;SDS011;64733;51.424;5.484;2022-12-10T06:15:24;13.98;;;7.30;;
6444;SDS011;64733;51.424;5.484;2022-12-10T06:17:51;10.32;;;5.93;;
6444;SDS011;64733;51.424;5.484;2022-12-10T06:20:17;11.82;;;7.10;;
6444;SDS011;64733;51.424;5.484;2022-12-10T06:22:44;13.80;;;7.65;;
6444;SDS011;64733;51.424;5.484;2022-12-10T06:25:11;15.40;;;6.70;;
6444;SDS011;64733;51.424;5.484;2022-12-10T06:27:38;14.50;;;8.23;;
6444;SDS011;64733;51.424;5.484;2022-12-10T06:30:05;14.23;;;8.57;;
6444;SDS011;64733;51.424;5.484;2022-12-10T06:32:34;15.20;;;7.15;;
6444;SDS011;64733;51.424;5.484;2022-12-10T06:35:00;14.25;;;6.47;;
6444;SDS011;64733;51.424;5.484;2022-12-10T06:37:27;13.27;;;7.10;;
6444;SDS011;64733;51.424;5.484;2022-12-10T06:39:54;12.52;;;6.72;;
6444;SDS011;64733;51.424;5.484;2022-12-10T06:42:21;12.70;;;6.43;;
6444;SDS011;64733;51.424;5.484;2022-12-10T06:44:47;11.23;;;6.03;;
6444;SDS011;64733;51.424;5.484;2022-12-10T06:47:14;12.32;;;7.10;;
6444;SDS011;64733;51.424;5.484;2022-12-10T06:49:42;11.63;;;6.13;;
6444;SDS011;64733;51.424;5.484;2022-12-10T06:52:09;12.85;;;6.30;;
6444;SDS011;64733;51.424;5.484;2022-12-10T06:54:35;10.02;;;6.35;;
6444;SDS011;64733;51.424;5.484;2022-12-10T06:57:02;8.70;;;5.93;;
6444;SDS011;64733;51.424;5.484;2022-12-10T06:59:29;11.13;;;6.13;;
6444;SDS011;64733;51.424;5.484;2022-12-10T07:01:56;9.40;;;5.63;;
6444;SDS011;64733;51.424;5.484;2022-12-10T07:04:23;10.02;;;6.00;;
6444;SDS011;64733;51.424;5.484;2022-12-10T07:06:51;9.90;;;4.88;;
6444;SDS011;64733;51.424;5.484;2022-12-10T07:09:18;12.30;;;6.15;;
6444;SDS011;64733;51.424;5.484;2022-12-10T07:11:44;7.93;;;4.85;;
6444;SDS011;64733;51.424;5.484;2022-12-10T07:14:11;7.53;;;5.38;;
6444;SDS011;64733;51.424;5.484;2022-12-10T07:16:40;9.13;;;4.55;;
6444;SDS011;64733;51.424;5.484;2022-12-10T07:19:08;7.40;;;4.65;;
6444;SDS011;64733;51.424;5.484;2022-12-10T07:21:36;7.03;;;4.63;;
6444;SDS011;64733;51.424;5.484;2022-12-10T07:24:07;7.57;;;4.90;;
6444;SDS011;64733;51.424;5.484;2022-12-10T07:26:36;8.20;;;4.78;;
6444;SDS011;64733;51.424;5.484;2022-12-10T07:29:05;6.55;;;3.50;;
6444;SDS011;64733;51.424;5.484;2022-12-10T07:31:33;6.82;;;5.00;;
6444;SDS011;64733;51.424;5.484;2022-12-10T07:33:59;6.60;;;4.22;;
6444;SDS011;64733;51.424;5.484;2022-12-10T07:36:27;8.32;;;4.50;;
6444;SDS011;64733;51.424;5.484;2022-12-10T07:38:54;8.65;;;3.58;;
6444;SDS011;64733;51.424;5.484;2022-12-10T07:41:23;8.73;;;5.10;;
6444;SDS011;64733;51.424;5.484;2022-12-10T07:43:50;6.30;;;3.42;;
6444;SDS011;64733;51.424;5.484;2022-12-10T07:46:18;7.53;;;5.63;;
6444;SDS011;64733;51.424;5.484;2022-12-10T07:48:47;9.63;;;4.88;;
6444;SDS011;64733;51.424;5.484;2022-12-10T07:51:14;10.32;;;4.72;;
6444;SDS011;64733;51.424;5.484;2022-12-10T07:53:42;7.82;;;4.75;;
6444;SDS011;64733;51.424;5.484;2022-12-10T07:56:09;7.47;;;4.43;;
6444;SDS011;64733;51.424;5.484;2022-12-10T07:58:40;11.20;;;4.95;;
6444;SDS011;64733;51.424;5.484;2022-12-10T08:01:08;7.40;;;5.20;;
6444;SDS011;64733;51.424;5.484;2022-12-10T08:03:37;8.38;;;4.78;;
6444;SDS011;64733;51.424;5.484;2022-12-10T08:06:05;10.90;;;4.35;;
6444;SDS011;64733;51.424;5.484;2022-12-10T08:08:34;7.85;;;4.35;;
6444;SDS011;64733;51.424;5.484;2022-12-10T08:11:02;8.30;;;4.13;;
6444;SDS011;64733;51.424;5.484;2022-12-10T08:13:31;7.03;;;5.25;;
6444;SDS011;64733;51.424;5.484;2022-12-10T08:16:01;8.07;;;5.00;;
6444;SDS011;64733;51.424;5.484;2022-12-10T08:18:29;8.50;;;4.47;;
6444;SDS011;64733;51.424;5.484;2022-12-10T08:20:56;6.65;;;4.35;;
6444;SDS011;64733;51.424;5.484;2022-12-10T08:23:22;6.90;;;4.65;;
6444;SDS011;64733;51.424;5.484;2022-12-10T08:25:49;7.95;;;4.57;;
6444;SDS011;64733;51.424;5.484;2022-12-10T08:28:16;7.28;;;4.50;;
6444;SDS011;64733;51.424;5.484;2022-12-10T08:30:44;10.55;;;5.05;;
6444;SDS011;64733;51.424;5.484;2022-12-10T08:33:13;9.95;;;5.25;;
6444;SDS011;64733;51.424;5.484;2022-12-10T08:35:40;7.97;;;4.82;;
6444;SDS011;64733;51.424;5.484;2022-12-10T08:38:07;10.07;;;5.18;;
6444;SDS011;64733;51.424;5.484;2022-12-10T08:40:33;9.82;;;5.13;;
6444;SDS011;64733;51.424;5.484;2022-12-10T08:43:00;8.55;;;4.63;;
6444;SDS011;64733;51.424;5.484;2022-12-10T08:45:27;7.72;;;5.00;;
6444;SDS011;64733;51.424;5.484;2022-12-10T08:47:53;9.60;;;4.78;;
6444;SDS011;64733;51.424;5.484;2022-12-10T08:50:22;10.63;;;5.55;;
6444;SDS011;64733;51.424;5.484;2022-12-10T08:52:48;10.35;;;5.28;;
6444;SDS011;64733;51.424;5.484;2022-12-10T08:55:15;8.48;;;5.40;;
6444;SDS011;64733;51.424;5.484;2022-12-10T08:57:42;8.85;;;4.82;;
6444;SDS011;64733;51.424;5.484;2022-12-10T09:00:09;8.63;;;4.75;;
6444;SDS011;64733;51.424;5.484;2022-12-10T09:02:37;6.72;;;4.00;;
6444;SDS011;64733;51.424;5.484;2022-12-10T09:05:04;10.35;;;5.80;;
6444;SDS011;64733;51.424;5.484;2022-12-10T09:07:34;7.57;;;4.60;;
6444;SDS011;64733;51.424;5.484;2022-12-10T09:10:00;9.20;;;5.78;;
6444;SDS011;64733;51.424;5.484;2022-12-10T09:12:27;9.48;;;4.30;;
6444;SDS011;64733;51.424;5.484;2022-12-10T09:14:54;9.77;;;6.60;;
6444;SDS011;64733;51.424;5.484;2022-12-10T09:17:21;9.35;;;4.68;;
6444;SDS011;64733;51.424;5.484;2022-12-10T09:19:48;11.93;;;4.00;;
6444;SDS011;64733;51.424;5.484;2022-12-10T09:22:14;6.18;;;3.38;;
6444;SDS011;64733;51.424;5.484;2022-12-10T09:24:42;7.10;;;3.53;;
6444;SDS011;64733;51.424;5.484;2022-12-10T09:27:09;7.70;;;4.20;;
6444;SDS011;64733;51.424;5.484;2022-12-10T09:29:36;6.93;;;3.75;;
6444;SDS011;64733;51.424;5.484;2022-12-10T09:32:03;6.75;;;4.13;;
6444;SDS011;64733;51.424;5.484;2022-12-10T09:34:30;8.63;;;4.50;;
6444;SDS011;64733;51.424;5.484;2022-12-10T09:36:56;7.50;;;3.80;;
6444;SDS011;64733;51.424;5.484;2022-12-10T09:39:23;10.18;;;4.53;;
6444;SDS011;64733;51.424;5.484;2022-12-10T09:42:00;9.05;;;4.28;;
6444;SDS011;64733;51.424;5.484;2022-12-10T09:44:41;8.15;;;4.40;;
6444;SDS011;64733;51.424;5.484;2022-12-10T09:47:13;8.50;;;4.90;;
6444;SDS011;64733;51.424;5.484;2022-12-10T09:49:44;10.25;;;4.57;;
6444;SDS011;64733;51.424;5.484;2022-12-10T09:52:20;7.75;;;4.95;;
6444;SDS011;64733;51.424;5.484;2022-12-10T09:54:49;8.82;;;5.03;;
6444;SDS011;64733;51.424;5.484;2022-12-10T09:57:22;10.80;;;4.30;;
6444;SDS011;64733;51.424;5.484;2022-12-10T09:59:53;7.75;;;4.20;;
6444;SDS011;64733;51.424;5.484;2022-12-10T10:02:22;5.53;;;3.67;;
6444;SDS011;64733;51.424;5.484;2022-12-10T10:04:54;8.65;;;4.22;;
6444;SDS011;64733;51.424;5.484;2022-12-10T10:07:33;9.07;;;4.30;;
6444;SDS011;64733;51.424;5.484;2022-12-10T10:10:03;8.98;;;5.03;;
6444;SDS011;64733;51.424;5.484;2022-12-10T10:12:34;8.32;;;5.97;;
6444;SDS011;64733;51.424;5.484;2022-12-10T10:15:09;10.55;;;5.30;;
6444;SDS011;64733;51.424;5.484;2022-12-10T10:17:39;8.95;;;5.40;;
6444;SDS011;64733;51.424;5.484;2022-12-10T10:20:10;8.93;;;4.72;;
6444;SDS011;64733;51.424;5.484;2022-12-10T10:22:38;9.00;;;4.55;;
6444;SDS011;64733;51.424;5.484;2022-12-10T10:25:06;17.10;;;5.93;;
6444;SDS011;64733;51.424;5.484;2022-12-10T10:27:41;12.70;;;7.20;;
6444;SDS011;64733;51.424;5.484;2022-12-10T10:30:12;10.65;;;7.15;;
6444;SDS011;64733;51.424;5.484;2022-12-10T10:32:46;11.15;;;8.05;;
6444;SDS011;64733;51.424;5.484;2022-12-10T10:35:24;15.20;;;10.90;;
6444;SDS011;64733;51.424;5.484;2022-12-10T10:37:58;13.73;;;9.10;;
6444;SDS011;64733;51.424;5.484;2022-12-10T10:40:28;16.08;;;9.10;;
6444;SDS011;64733;51.424;5.484;2022-12-10T10:42:58;12.65;;;8.88;;
6444;SDS011;64733;51.424;5.484;2022-12-10T10:48:19;19.05;;;10.75;;
6444;SDS011;64733;51.424;5.484;2022-12-10T10:50:48;15.27;;;8.90;;
6444;SDS011;64733;51.424;5.484;2022-12-10T10:53:23;16.02;;;8.35;;
6444;SDS011;64733;51.424;5.484;2022-12-10T10:55:55;17.10;;;10.40;;
6444;SDS011;64733;51.424;5.484;2022-12-10T10:58:26;17.65;;;9.80;;
6444;SDS011;64733;51.424;5.484;2022-12-10T11:00:54;15.80;;;9.63;;
6444;SDS011;64733;51.424;5.484;2022-12-10T11:03:23;16.85;;;10.75;;
6444;SDS011;64733;51.424;5.484;2022-12-10T11:05:50;18.33;;;11.38;;
6444;SDS011;64733;51.424;5.484;2022-12-10T11:08:17;18.58;;;10.43;;
6444;SDS011;64733;51.424;5.484;2022-12-10T11:10:48;16.65;;;10.35;;
6444;SDS011;64733;51.424;5.484;2022-12-10T11:13:21;19.17;;;10.10;;
6444;SDS011;64733;51.424;5.484;2022-12-10T11:15:57;17.63;;;9.90;;
6444;SDS011;64733;51.424;5.484;2022-12-10T11:18:29;19.17;;;12.00;;
6444;SDS011;64733;51.424;5.484;2022-12-10T11:20:58;14.90;;;9.27;;
6444;SDS011;64733;51.424;5.484;2022-12-10T11:23:27;16.17;;;8.52;;
6444;SDS011;64733;51.424;5.484;2022-12-10T11:25:57;15.32;;;10.88;;
6444;SDS011;64733;51.424;5.484;2022-12-10T11:28:36;15.25;;;8.70;;
6444;SDS011;64733;51.424;5.484;2022-12-10T11:31:19;14.35;;;8.43;;
6444;SDS011;64733;51.424;5.484;2022-12-10T11:33:55;13.68;;;8.30;;
6444;SDS011;64733;51.424;5.484;2022-12-10T11:36:35;15.82;;;8.95;;
6444;SDS011;64733;51.424;5.484;2022-12-10T11:39:10;12.90;;;7.63;;
6444;SDS011;64733;51.424;5.484;2022-12-10T11:41:53;13.55;;;7.65;;
6444;SDS011;64733;51.424;5.484;2022-12-10T11:44:27;14.00;;;8.30;;
6444;SDS011;64733;51.424;5.484;2022-12-10T11:47:17;12.65;;;7.68;;
6444;SDS011;64733;51.424;5.484;2022-12-10T11:49:56;14.35;;;8.38;;
6444;SDS011;64733;51.424;5.484;2022-12-10T11:52:39;12.80;;;8.85;;
6444;SDS011;64733;51.424;5.484;2022-12-10T11:55:17;12.02;;;7.20;;
6444;SDS011;64733;51.424;5.484;2022-12-10T11:57:55;10.85;;;6.32;;
6444;SDS011;64733;51.424;5.484;2022-12-10T12:00:39;10.25;;;7.00;;
6444;SDS011;64733;51.424;5.484;2022-12-10T12:03:19;13.30;;;7.35;;
6444;SDS011;64733;51.424;5.484;2022-12-10T12:09:30;12.13;;;7.28;;
6444;SDS011;64733;51.424;5.484;2022-12-10T12:12:05;14.43;;;7.68;;
6444;SDS011;64733;51.424;5.484;2022-12-10T12:14:43;12.75;;;6.47;;
6444;SDS011;64733;51.424;5.484;2022-12-10T12:17:15;13.70;;;7.25;;
6444;SDS011;64733;51.424;5.484;2022-12-10T12:19:48;13.95;;;7.88;;
6444;SDS011;64733;51.424;5.484;2022-12-10T12:22:21;12.70;;;6.22;;
6444;SDS011;64733;51.424;5.484;2022-12-10T12:24:51;13.15;;;8.00;;
6444;SDS011;64733;51.424;5.484;2022-12-10T12:27:25;11.75;;;6.47;;
6444;SDS011;64733;51.424;5.484;2022-12-10T12:30:04;18.00;;;8.27;;
6444;SDS011;64733;51.424;5.484;2022-12-10T12:32:43;12.65;;;7.05;;
6444;SDS011;64733;51.424;5.484;2022-12-10T12:35:19;13.45;;;7.53;;
6444;SDS011;64733;51.424;5.484;2022-12-10T12:37:51;12.40;;;7.18;;
6444;SDS011;64733;51.424;5.484;2022-12-10T12:40:25;13.30;;;7.63;;
6444;SDS011;64733;51.424;5.484;2022-12-10T12:42:56;12.32;;;7.45;;
6444;SDS011;64733;51.424;5.484;2022-12-10T12:45:30;15.63;;;7.80;;
6444;SDS011;64733;51.424;5.484;2022-12-10T12:48:01;13.93;;;7.13;;
6444;SDS011;64733;51.424;5.484;2022-12-10T12:50:41;12.30;;;6.68;;
6444;SDS011;64733;51.424;5.484;2022-12-10T12:53:11;11.27;;;6.22;;
6444;SDS011;64733;51.424;5.484;2022-12-10T12:55:41;12.65;;;6.60;;
6444;SDS011;64733;51.424;5.484;2022-12-10T12:58:17;13.18;;;5.95;;
6444;SDS011;64733;51.424;5.484;2022-12-10T13:00:53;10.07;;;7.43;;
6444;SDS011;64733;51.424;5.484;2022-12-10T13:03:29;11.52;;;6.50;;
6444;SDS011;64733;51.424;5.484;2022-12-10T13:06:13;10.88;;;6.32;;
6444;SDS011;64733;51.424;5.484;2022-12-10T13:08:43;10.77;;;6.13;;
6444;SDS011;64733;51.424;5.484;2022-12-10T13:11:18;10.40;;;6.68;;
6444;SDS011;64733;51.424;5.484;2022-12-10T13:17:01;11.13;;;7.13;;
6444;SDS011;64733;51.424;5.484;2022-12-10T13:19:43;8.48;;;5.25;;
6444;SDS011;64733;51.424;5.484;2022-12-10T13:22:11;13.00;;;6.32;;
6444;SDS011;64733;51.424;5.484;2022-12-10T13:27:39;12.90;;;7.22;;
6444;SDS011;64733;51.424;5.484;2022-12-10T13:30:28;9.57;;;5.60;;
6444;SDS011;64733;51.424;5.484;2022-12-10T13:33:10;12.50;;;7.13;;
6444;SDS011;64733;51.424;5.484;2022-12-10T13:35:42;9.15;;;5.28;;
6444;SDS011;64733;51.424;5.484;2022-12-10T13:38:19;11.82;;;6.10;;
6444;SDS011;64733;51.424;5.484;2022-12-10T13:40:59;11.13;;;7.47;;
6444;SDS011;64733;51.424;5.484;2022-12-10T13:43:54;8.88;;;5.05;;
6444;SDS011;64733;51.424;5.484;2022-12-10T13:46:53;9.88;;;6.50;;
6444;SDS011;64733;51.424;5.484;2022-12-10T13:49:25;8.73;;;5.78;;
6444;SDS011;64733;51.424;5.484;2022-12-10T13:52:00;9.18;;;6.88;;
6444;SDS011;64733;51.424;5.484;2022-12-10T13:54:34;8.23;;;5.10;;
6444;SDS011;64733;51.424;5.484;2022-12-10T13:57:37;9.45;;;5.25;;
6444;SDS011;64733;51.424;5.484;2022-12-10T14:00:15;7.55;;;4.80;;
6444;SDS011;64733;51.424;5.484;2022-12-10T14:06:05;9.73;;;5.80;;
6444;SDS011;64733;51.424;5.484;2022-12-10T14:08:39;11.45;;;5.50;;
6444;SDS011;64733;51.424;5.484;2022-12-10T14:11:12;10.90;;;5.78;;
6444;SDS011;64733;51.424;5.484;2022-12-10T14:13:46;11.85;;;5.65;;
6444;SDS011;64733;51.424;5.484;2022-12-10T14:16:18;10.50;;;5.90;;
6444;SDS011;64733;51.424;5.484;2022-12-10T14:18:50;8.65;;;5.15;;
6444;SDS011;64733;51.424;5.484;2022-12-10T14:21:19;9.23;;;5.55;;
6444;SDS011;64733;51.424;5.484;2022-12-10T14:23:47;8.82;;;6.57;;
6444;SDS011;64733;51.424;5.484;2022-12-10T14:26:17;11.18;;;5.07;;
6444;SDS011;64733;51.424;5.484;2022-12-10T14:28:46;10.13;;;6.03;;
6444;SDS011;64733;51.424;5.484;2022-12-10T14:31:16;11.45;;;5.15;;
6444;SDS011;64733;51.424;5.484;2022-12-10T14:33:45;10.68;;;5.10;;
6444;SDS011;64733;51.424;5.484;2022-12-10T14:36:24;8.77;;;4.95;;
6444;SDS011;64733;51.424;5.484;2022-12-10T14:38:53;8.75;;;5.13;;
6444;SDS011;64733;51.424;5.484;2022-12-10T14:41:22;10.45;;;6.05;;
6444;SDS011;64733;51.424;5.484;2022-12-10T14:43:50;10.27;;;5.55;;
6444;SDS011;64733;51.424;5.484;2022-12-10T14:46:19;10.27;;;5.47;;
6444;SDS011;64733;51.424;5.484;2022-12-10T14:48:48;9.25;;;4.68;;
6444;SDS011;64733;51.424;5.484;2022-12-10T14:51:18;10.90;;;5.63;;
6444;SDS011;64733;51.424;5.484;2022-12-10T14:53:46;9.20;;;5.25;;
6444;SDS011;64733;51.424;5.484;2022-12-10T14:56:15;8.95;;;4.75;;
6444;SDS011;64733;51.424;5.484;2022-12-10T14:58:49;7.88;;;4.95;;
6444;SDS011;64733;51.424;5.484;2022-12-10T16:04:21;10.75;;;6.57;;
6444;SDS011;64733;51.424;5.484;2022-12-10T16:06:48;9.20;;;5.43;;
6444;SDS011;64733;51.424;5.484;2022-12-10T16:09:14;12.15;;;6.82;;
6444;SDS011;64733;51.424;5.484;2022-12-10T16:11:41;10.95;;;6.70;;
6444;SDS011;64733;51.424;5.484;2022-12-10T16:14:08;10.23;;;6.10;;
6444;SDS011;64733;51.424;5.484;2022-12-10T16:16:36;9.05;;;6.13;;
6444;SDS011;64733;51.424;5.484;2022-12-10T16:19:04;11.02;;;6.00;;
6444;SDS011;64733;51.424;5.484;2022-12-10T16:21:37;12.23;;;7.18;;
6444;SDS011;64733;51.424;5.484;2022-12-10T16:24:06;12.00;;;6.10;;
6444;SDS011;64733;51.424;5.484;2022-12-10T16:26:33;12.68;;;8.05;;
6444;SDS011;64733;51.424;5.484;2022-12-10T16:28:59;10.73;;;7.20;;
6444;SDS011;64733;51.424;5.484;2022-12-10T16:31:26;11.98;;;6.22;;
6444;SDS011;64733;51.424;5.484;2022-12-10T16:33:53;11.40;;;5.53;;
6444;SDS011;64733;51.424;5.484;2022-12-10T16:36:21;10.88;;;7.07;;
6444;SDS011;64733;51.424;5.484;2022-12-10T16:38:49;9.27;;;6.05;;
6444;SDS011;64733;51.424;5.484;2022-12-10T16:41:16;10.38;;;7.28;;
6444;SDS011;64733;51.424;5.484;2022-12-10T16:43:45;10.95;;;7.03;;
6444;SDS011;64733;51.424;5.484;2022-12-10T16:46:12;9.70;;;6.65;;
6444;SDS011;64733;51.424;5.484;2022-12-10T16:48:39;11.55;;;6.10;;
6444;SDS011;64733;51.424;5.484;2022-12-10T16:51:10;10.15;;;6.93;;
6444;SDS011;64733;51.424;5.484;2022-12-10T16:53:41;10.85;;;5.88;;
6444;SDS011;64733;51.424;5.484;2022-12-10T16:56:11;12.18;;;6.18;;
6444;SDS011;64733;51.424;5.484;2022-12-10T16:58:39;9.85;;;5.93;;
6444;SDS011;64733;51.424;5.484;2022-12-10T17:01:08;10.20;;;6.72;;
6444;SDS011;64733;51.424;5.484;2022-12-10T17:03:44;11.98;;;7.60;;
6444;SDS011;64733;51.424;5.484;2022-12-10T17:06:11;10.80;;;6.72;;
6444;SDS011;64733;51.424;5.484;2022-12-10T17:08:39;11.98;;;7.18;;
6444;SDS011;64733;51.424;5.484;2022-12-10T17:11:12;12.65;;;6.72;;
6444;SDS011;64733;51.424;5.484;2022-12-10T17:14:00;12.75;;;7.35;;
6444;SDS011;64733;51.424;5.484;2022-12-10T17:16:28;14.18;;;7.63;;
6444;SDS011;64733;51.424;5.484;2022-12-10T17:18:55;11.30;;;6.38;;
6444;SDS011;64733;51.424;5.484;2022-12-10T17:21:21;11.32;;;7.38;;
6444;SDS011;64733;51.424;5.484;2022-12-10T17:23:48;10.65;;;5.93;;
6444;SDS011;64733;51.424;5.484;2022-12-10T17:26:20;10.57;;;6.25;;
6444;SDS011;64733;51.424;5.484;2022-12-10T17:28:50;12.45;;;6.03;;
6444;SDS011;64733;51.424;5.484;2022-12-10T17:31:18;8.90;;;4.32;;
6444;SDS011;64733;51.424;5.484;2022-12-10T17:33:44;10.20;;;6.32;;
6444;SDS011;64733;51.424;5.484;2022-12-10T17:36:11;8.73;;;5.95;;
6444;SDS011;64733;51.424;5.484;2022-12-10T17:38:38;9.88;;;6.20;;
6444;SDS011;64733;51.424;5.484;2022-12-10T17:41:05;8.68;;;5.10;;
6444;SDS011;64733;51.424;5.484;2022-12-10T17:43:33;9.25;;;5.65;;
6444;SDS011;64733;51.424;5.484;2022-12-10T17:45:59;7.88;;;4.70;;
6444;SDS011;64733;51.424;5.484;2022-12-10T17:48:26;8.93;;;5.93;;
6444;SDS011;64733;51.424;5.484;2022-12-10T17:50:52;10.13;;;6.35;;
6444;SDS011;64733;51.424;5.484;2022-12-10T17:53:19;9.07;;;6.05;;
6444;SDS011;64733;51.424;5.484;2022-12-10T17:55:48;9.13;;;5.20;;
6444;SDS011;64733;51.424;5.484;2022-12-10T17:58:17;8.95;;;5.85;;
6444;SDS011;64733;51.424;5.484;2022-12-10T18:00:49;9.07;;;4.20;;
6444;SDS011;64733;51.424;5.484;2022-12-10T18:03:17;10.02;;;5.88;;
6444;SDS011;64733;51.424;5.484;2022-12-10T18:05:44;9.57;;;6.70;;
6444;SDS011;64733;51.424;5.484;2022-12-10T18:08:12;10.02;;;5.18;;
6444;SDS011;64733;51.424;5.484;2022-12-10T18:10:39;9.75;;;6.35;;
6444;SDS011;64733;51.424;5.484;2022-12-10T18:13:06;7.57;;;5.55;;
6444;SDS011;64733;51.424;5.484;2022-12-10T18:15:32;8.35;;;5.40;;
6444;SDS011;64733;51.424;5.484;2022-12-10T18:18:00;9.75;;;5.97;;
6444;SDS011;64733;51.424;5.484;2022-12-10T18:20:29;10.77;;;4.93;;
6444;SDS011;64733;51.424;5.484;2022-12-10T18:22:57;10.80;;;5.03;;
6444;SDS011;64733;51.424;5.484;2022-12-10T18:25:25;10.80;;;6.07;;
6444;SDS011;64733;51.424;5.484;2022-12-10T18:27:52;15.20;;;5.88;;
6444;SDS011;64733;51.424;5.484;2022-12-10T18:30:22;12.40;;;6.88;;
6444;SDS011;64733;51.424;5.484;2022-12-10T18:32:49;9.77;;;5.18;;
6444;SDS011;64733;51.424;5.484;2022-12-10T18:35:18;10.73;;;5.95;;
6444;SDS011;64733;51.424;5.484;2022-12-10T18:37:46;9.25;;;5.30;;
6444;SDS011;64733;51.424;5.484;2022-12-10T18:40:14;9.23;;;5.55;;
6444;SDS011;64733;51.424;5.484;2022-12-10T18:42:43;11.75;;;5.30;;
6444;SDS011;64733;51.424;5.484;2022-12-10T18:45:10;10.43;;;5.93;;
6444;SDS011;64733;51.424;5.484;2022-12-10T18:47:37;9.23;;;4.90;;
6444;SDS011;64733;51.424;5.484;2022-12-10T18:50:05;7.75;;;4.80;;
6444;SDS011;64733;51.424;5.484;2022-12-10T18:52:44;12.20;;;6.15;;
6444;SDS011;64733;51.424;5.484;2022-12-10T18:55:11;7.85;;;5.18;;
6444;SDS011;64733;51.424;5.484;2022-12-10T18:57:38;7.47;;;4.60;;
6444;SDS011;64733;51.424;5.484;2022-12-10T19:00:06;7.97;;;5.80;;
